Time;durP1;ratioP1;P1;durP2;ratioP2;P2;SDS_P1;SDS_P2;PMS_P1;PMS_P2;Temp;Humidity;BMP_temperature;BMP_pressure;BME280_temperature;BME280_humidity;BME280_pressure;Samples;Min_cycle;Max_cycle;Signal;HPM_P1;HPM_P2
2021/08/03 00:02:00;;;;;;;0.10;0.10;;;;;;;13.38;93.43;100749.75;5026129;28;20499;-90
2021/08/03 00:04:39;;;;;;;0.10;0.10;;;;;;;13.34;93.42;100750.59;5025453;28;20045;-89
2021/08/03 00:07:17;;;;;;;0.20;0.20;;;;;;;13.34;93.20;100756.88;5031042;28;20049;-90
2021/08/03 00:09:55;;;;;;;0.10;0.10;;;;;;;13.32;93.12;100744.63;5028093;28;20050;-91
2021/08/03 00:12:29;;;;;;;0.10;0.10;;;;;;;13.05;93.66;100716.84;5030675;28;20041;-90
2021/08/03 00:15:01;;;;;;;0.20;0.20;;;;;;;13.02;93.51;100714.72;5032197;28;20053;-90
2021/08/03 00:17:39;;;;;;;0.10;0.10;;;;;;;13.00;93.68;100727.06;5029771;28;20056;-90
2021/08/03 00:20:15;;;;;;;0.17;0.17;;;;;;;12.66;94.63;100687.88;5023244;28;20052;-89
2021/08/03 00:23:01;;;;;;;0.13;0.13;;;;;;;12.92;94.33;100734.78;5020228;28;20049;-90
2021/08/03 00:25:36;;;;;;;0.20;0.20;;;;;;;12.97;94.87;100741.28;5017381;28;20057;-90
2021/08/03 00:28:06;;;;;;;0.10;0.10;;;;;;;12.99;95.24;100747.28;5026956;28;20080;-90
2021/08/03 00:30:39;;;;;;;0.10;0.10;;;;;;;12.96;95.17;100753.31;5017606;28;20076;-91
2021/08/03 00:33:14;;;;;;;0.10;0.10;;;;;;;12.89;95.06;100749.03;5026711;28;20054;-90
2021/08/03 00:35:56;;;;;;;0.20;0.20;;;;;;;12.90;95.18;100753.38;5027303;28;20034;-90
2021/08/03 00:38:24;;;;;;;;;;;;;;;12.98;95.25;100767.50;5031453;28;20045;-91
2021/08/03 00:41:02;;;;;;;0.10;0.10;;;;;;;12.92;94.60;100756.63;5031065;28;20377;-91
2021/08/03 00:43:31;;;;;;;0.20;0.20;;;;;;;12.96;95.35;100765.06;5030164;28;20497;-90
2021/08/03 00:46:05;;;;;;;0.20;0.20;;;;;;;13.02;95.61;100763.91;5027319;28;20414;-90
2021/08/03 00:48:34;;;;;;;0.20;0.20;;;;;;;13.02;95.99;100769.38;5020734;28;20061;-91
2021/08/03 00:51:08;;;;;;;0.20;0.20;;;;;;;12.98;95.33;100759.28;5046286;28;20052;-88
2021/08/03 00:53:43;;;;;;;0.10;0.10;;;;;;;12.98;95.42;100756.56;5030253;28;20049;-91
2021/08/03 00:56:13;;;;;;;0.10;0.10;;;;;;;13.07;95.17;100755.59;5027436;28;20417;-90
2021/08/03 00:58:48;;;;;;;0.20;0.20;;;;;;;13.10;95.69;100765.13;5022978;28;20494;-90
2021/08/03 01:01:21;;;;;;;0.20;0.20;;;;;;;13.09;95.44;100766.25;5033107;28;20041;-90
2021/08/03 01:03:50;;;;;;;0.10;0.10;;;;;;;13.12;94.99;100764.84;5029677;28;20421;-90
2021/08/03 01:06:34;;;;;;;0.20;0.20;;;;;;;13.12;95.01;100768.41;5031548;28;20060;-89
2021/08/03 01:09:19;;;;;;;0.10;0.10;;;;;;;13.16;94.62;100758.50;5023434;28;20046;-90
2021/08/03 01:11:57;;;;;;;0.10;0.10;;;;;;;13.08;95.72;100762.72;5028890;28;20052;-90
2021/08/03 01:14:39;;;;;;;0.10;0.10;;;;;;;13.15;94.85;100762.34;5026091;28;20069;-90
2021/08/03 01:17:13;;;;;;;0.20;0.20;;;;;;;13.20;94.69;100758.72;5028429;28;20494;-90
2021/08/03 01:19:59;;;;;;;0.10;0.10;;;;;;;13.08;95.01;100757.25;5033437;28;20532;-89
2021/08/03 01:22:54;;;;;;;0.10;0.10;;;;;;;13.14;95.72;100763.44;5034244;28;20049;-90
2021/08/03 01:25:39;;;;;;;0.10;0.10;;;;;;;13.17;94.88;100767.50;5023957;28;20046;-89
2021/08/03 01:28:23;;;;;;;0.20;0.20;;;;;;;13.03;95.60;100765.50;5034405;28;20057;-90
2021/08/03 01:31:01;;;;;;;0.10;0.10;;;;;;;13.01;97.10;100767.72;5031123;28;20053;-91
2021/08/03 01:33:34;;;;;;;0.20;0.20;;;;;;;13.00;96.69;100770.75;5046742;28;20423;-91
2021/08/03 01:36:07;;;;;;;0.10;0.10;;;;;;;13.08;96.61;100781.84;5035346;28;20049;-90
2021/08/03 01:38:43;;;;;;;0.10;0.10;;;;;;;13.02;95.88;100788.47;5034515;28;20493;-89
2021/08/03 01:41:19;;;;;;;0.20;0.20;;;;;;;13.00;97.01;100785.22;5048457;28;20053;-89
2021/08/03 01:43:55;;;;;;;0.20;0.20;;;;;;;12.98;97.21;100786.63;5023369;28;20056;-89
2021/08/03 01:46:38;;;;;;;0.10;0.10;;;;;;;12.93;96.51;100792.97;5030030;28;20045;-90
2021/08/03 01:49:11;;;;;;;0.10;0.10;;;;;;;12.96;96.69;100794.31;5033371;28;20052;-90
2021/08/03 01:51:47;;;;;;;0.20;0.20;;;;;;;12.87;97.68;100791.38;5033639;28;20049;-90
2021/08/03 01:54:17;;;;;;;0.20;0.20;;;;;;;12.67;96.96;100749.59;5018200;28;20049;-90
2021/08/03 01:56:52;;;;;;;0.20;0.20;;;;;;;12.88;97.78;100788.38;5030968;28;20041;-91
2021/08/03 01:59:26;;;;;;;0.20;0.20;;;;;;;12.95;97.63;100785.28;5028025;28;20064;-91
2021/08/03 02:02:01;;;;;;;0.20;0.20;;;;;;;12.91;96.76;100790.53;5032269;28;20046;-91
2021/08/03 02:04:35;;;;;;;0.10;0.10;;;;;;;12.89;96.16;100789.19;5019911;28;20461;-90
2021/08/03 02:07:09;;;;;;;0.13;0.13;;;;;;;12.79;96.75;100787.41;5034893;28;20478;-91
2021/08/03 02:09:49;;;;;;;0.20;0.20;;;;;;;12.90;96.50;100780.69;5038886;28;20060;-91
2021/08/03 02:12:23;;;;;;;0.13;0.13;;;;;;;12.80;96.49;100786.31;5024862;28;20053;-92
2021/08/03 02:14:59;;;;;;;0.13;0.13;;;;;;;12.85;96.87;100785.44;5028901;28;20054;-90
2021/08/03 02:17:32;;;;;;;0.13;0.13;;;;;;;12.84;97.60;100786.53;5033887;28;20060;-90
2021/08/03 02:20:19;;;;;;;0.20;0.20;;;;;;;12.78;98.17;100788.50;5033617;28;20068;-90
2021/08/03 02:22:56;;;;;;;0.20;0.20;;;;;;;12.67;99.02;100778.81;5030567;28;20132;-90
2021/08/03 02:25:33;;;;;;;0.17;0.17;;;;;;;12.71;99.46;100791.59;5027893;28;20080;-90
2021/08/03 02:28:08;;;;;;;0.20;0.20;;;;;;;12.69;98.72;100795.72;5028956;28;20478;-89
2021/08/03 02:30:42;;;;;;;0.20;0.20;;;;;;;12.57;98.60;100777.81;5032427;28;20050;-91
2021/08/03 02:33:17;;;;;;;0.20;0.20;;;;;;;12.64;98.64;100787.59;5032339;28;20041;-89
2021/08/03 02:35:51;;;;;;;0.10;0.10;;;;;;;12.56;98.60;100791.78;5029387;28;20049;-89
2021/08/03 02:38:24;;;;;;;0.15;0.15;;;;;;;12.62;98.83;100796.06;5029695;28;20046;-90
2021/08/03 02:40:58;;;;;;;0.20;0.20;;;;;;;12.63;98.24;100791.41;5029314;28;20135;-90
2021/08/03 02:43:37;;;;;;;0.20;0.20;;;;;;;12.51;98.18;100795.38;5027574;28;20132;-89
2021/08/03 02:46:14;;;;;;;0.20;0.20;;;;;;;12.44;99.05;100766.78;5038549;28;20060;-90
2021/08/03 02:49:00;;;;;;;;;;;;;;;12.63;98.46;100794.94;5014701;28;20057;-90
2021/08/03 02:51:36;;;;;;;0.17;0.17;;;;;;;12.55;99.11;100787.41;5027497;28;19948;-90
2021/08/03 02:54:23;;;;;;;0.20;0.20;;;;;;;12.56;99.42;100803.50;5030803;28;20116;-90
2021/08/03 02:57:01;;;;;;;0.20;0.20;;;;;;;12.55;99.32;100787.41;5032481;28;20529;-89
2021/08/03 02:59:35;;;;;;;0.20;0.20;;;;;;;12.53;98.13;100786.91;5029313;28;20034;-90
2021/08/03 03:02:12;;;;;;;0.20;0.20;;;;;;;12.62;98.52;100787.06;5028917;28;20354;-90
2021/08/03 03:04:57;;;;;;;0.20;0.20;;;;;;;12.48;98.29;100793.22;5032425;28;20266;-90
2021/08/03 03:07:30;;;;;;;0.10;0.10;;;;;;;12.56;98.02;100789.03;5030424;28;20049;-89
2021/08/03 03:10:13;;;;;;;0.10;0.10;;;;;;;12.46;99.24;100783.72;5019828;28;20389;-90
2021/08/03 03:12:51;;;;;;;0.15;0.15;;;;;;;12.43;98.59;100782.38;5033004;28;20042;-90
2021/08/03 03:15:25;;;;;;;0.20;0.20;;;;;;;12.35;99.44;100785.72;5023482;28;20414;-90
2021/08/03 03:17:56;;;;;;;0.20;0.20;;;;;;;12.24;99.12;100791.28;5032624;28;20049;-90
2021/08/03 03:20:30;;;;;;;0.10;0.10;;;;;;;12.28;99.50;100787.97;5030892;28;20049;-91
2021/08/03 03:23:02;;;;;;;0.15;0.15;;;;;;;12.32;98.49;100789.84;5031493;28;20053;-90
2021/08/03 03:25:40;;;;;;;0.10;0.10;;;;;;;12.32;98.60;100786.28;5018516;28;20041;-91
2021/08/03 03:28:19;;;;;;;0.10;0.10;;;;;;;12.33;98.19;100780.56;5026975;28;20060;-91
2021/08/03 03:30:54;;;;;;;0.10;0.10;;;;;;;12.22;99.06;100796.22;5031713;28;20072;-90
2021/08/03 03:33:25;;;;;;;0.10;0.10;;;;;;;12.22;98.96;100787.19;5031240;28;20041;-90
2021/08/03 03:35:57;;;;;;;0.10;0.10;;;;;;;12.16;99.09;100774.72;5033137;28;20478;-90
2021/08/03 03:38:31;;;;;;;0.20;0.20;;;;;;;12.09;98.23;100772.34;5031800;28;20421;-90
2021/08/03 03:41:07;;;;;;;0.15;0.15;;;;;;;12.14;98.88;100774.19;5039210;28;20042;-89
2021/08/03 03:43:35;;;;;;;0.15;0.15;;;;;;;12.02;98.82;100789.03;5025594;28;20406;-91
2021/08/03 03:46:22;;;;;;;0.13;0.13;;;;;;;12.01;98.43;100781.13;5030952;28;20057;-90
2021/08/03 03:49:01;;;;;;;;;;;;;;;12.00;98.93;100772.16;5033849;28;20044;-91
2021/08/03 03:51:33;;;;;;;0.20;0.20;;;;;;;11.95;99.33;100768.66;5031791;28;19925;-90
2021/08/03 03:54:08;;;;;;;0.10;0.10;;;;;;;11.96;99.23;100773.81;5033126;28;20038;-91
2021/08/03 03:56:45;;;;;;;0.20;0.20;;;;;;;11.96;99.14;100776.56;5031653;28;20045;-90
2021/08/03 03:59:21;;;;;;;0.20;0.20;;;;;;;11.98;98.84;100785.25;5028643;28;20057;-90
2021/08/03 04:01:56;;;;;;;0.10;0.10;;;;;;;11.89;99.03;100792.38;5035657;28;20046;-91
2021/08/03 04:04:32;;;;;;;0.10;0.10;;;;;;;11.86;98.87;100782.06;5028413;28;20049;-90
2021/08/03 04:07:14;;;;;;;0.20;0.20;;;;;;;11.87;99.45;100789.94;5031238;28;20041;-91
2021/08/03 04:09:48;;;;;;;;;;;;;;;11.86;99.46;100796.53;5031877;28;20041;-90
2021/08/03 04:12:21;;;;;;;0.10;0.10;;;;;;;11.83;99.42;100801.72;5030617;28;19936;-91
2021/08/03 04:14:55;;;;;;;0.10;0.10;;;;;;;11.76;99.98;100801.22;5027183;28;20050;-90
2021/08/03 04:17:28;;;;;;;0.17;0.17;;;;;;;11.78;99.72;100799.84;5031141;28;20050;-91
2021/08/03 04:20:05;;;;;;;0.10;0.10;;;;;;;11.73;99.69;100806.16;5031402;28;20391;-91
2021/08/03 04:22:38;;;;;;;0.10;0.10;;;;;;;11.70;99.48;100795.81;5029982;28;20045;-89
2021/08/03 04:25:12;;;;;;;0.10;0.10;;;;;;;11.64;99.91;100791.50;5019206;28;20144;-90
2021/08/03 04:27:46;;;;;;;0.10;0.10;;;;;;;11.73;99.58;100803.41;5027986;28;20053;-90
2021/08/03 04:30:16;;;;;;;0.10;0.10;;;;;;;11.73;99.65;100813.53;5026477;28;20394;-90
2021/08/03 04:32:45;;;;;;;0.20;0.20;;;;;;;11.73;99.62;100819.78;5031580;28;20053;-90
2021/08/03 04:35:19;;;;;;;0.10;0.10;;;;;;;11.51;99.62;100773.06;5032574;28;20042;-90
2021/08/03 04:37:53;;;;;;;0.10;0.10;;;;;;;11.76;99.61;100810.22;5024992;28;20386;-90
2021/08/03 04:40:22;;;;;;;0.10;0.10;;;;;;;11.77;100.00;100824.69;5031604;28;20056;-90
2021/08/03 04:43:00;;;;;;;0.10;0.10;;;;;;;11.86;100.00;100814.78;5030475;28;20509;-91
2021/08/03 04:45:29;;;;;;;0.10;0.10;;;;;;;11.77;100.00;100779.13;5029295;28;20406;-91
2021/08/03 04:47:57;;;;;;;0.20;0.20;;;;;;;12.11;100.00;100816.53;5032381;28;20045;-90
2021/08/03 04:50:33;;;;;;;0.10;0.10;;;;;;;12.19;100.00;100815.91;5030957;28;20060;-91
2021/08/03 04:53:06;;;;;;;0.10;0.10;;;;;;;12.24;100.00;100817.75;5032257;28;20486;-90
2021/08/03 04:55:35;;;;;;;0.10;0.10;;;;;;;12.28;100.00;100815.25;5035613;28;20049;-89
2021/08/03 04:58:13;;;;;;;0.10;0.10;;;;;;;12.36;99.49;100820.91;5029270;28;20045;-90
2021/08/03 05:00:46;;;;;;;0.20;0.20;;;;;;;12.42;99.67;100819.75;5035320;28;20042;-88
2021/08/03 05:03:14;;;;;;;0.10;0.10;;;;;;;12.47;99.66;100818.91;5030507;28;20064;-89
2021/08/03 05:05:44;;;;;;;0.20;0.20;;;;;;;12.57;100.00;100829.69;5035420;28;20038;-90
2021/08/03 05:08:12;;;;;;;0.10;0.10;;;;;;;12.61;99.90;100824.47;5028136;28;20486;-90
2021/08/03 05:10:41;;;;;;;0.10;0.10;;;;;;;12.57;99.25;100828.88;5030710;28;20060;-89
2021/08/03 05:13:15;;;;;;;0.10;0.10;;;;;;;12.63;99.16;100832.38;5031025;28;20054;-90
2021/08/03 05:15:52;;;;;;;0.10;0.10;;;;;;;12.71;99.10;100831.75;5034180;28;20056;-90
2021/08/03 05:18:26;;;;;;;0.10;0.10;;;;;;;12.75;99.36;100836.31;5029919;28;20049;-90
2021/08/03 05:21:00;;;;;;;0.10;0.10;;;;;;;12.81;98.34;100828.06;5035245;28;20053;-90
2021/08/03 05:23:36;;;;;;;0.10;0.10;;;;;;;12.72;98.39;100827.91;5032717;28;20045;-89
2021/08/03 05:26:04;;;;;;;0.15;0.15;;;;;;;12.78;99.21;100828.66;5027625;28;20045;-89
2021/08/03 05:28:37;;;;;;;0.20;0.20;;;;;;;12.90;99.62;100829.06;5033951;28;20041;-90
2021/08/03 05:31:05;;;;;;;0.10;0.10;;;;;;;12.72;97.71;100811.53;5034482;28;20057;-90
2021/08/03 05:33:39;;;;;;;0.20;0.20;;;;;;;13.03;97.76;100839.25;5033137;28;20041;-90
2021/08/03 05:36:08;;;;;;;0.20;0.20;;;;;;;13.04;99.42;100837.38;5035784;28;20049;-89
2021/08/03 05:38:42;;;;;;;0.20;0.20;;;;;;;13.03;99.17;100839.25;5035341;28;20046;-90
2021/08/03 05:41:15;;;;;;;0.20;0.20;;;;;;;13.19;98.64;100845.34;5042329;28;20049;-90
2021/08/03 05:43:48;;;;;;;0.20;0.20;;;;;;;13.19;97.68;100845.34;5024288;28;20056;-91
2021/08/03 05:46:21;;;;;;;0.20;0.20;;;;;;;13.17;97.90;100842.09;5035312;28;20510;-91
2021/08/03 05:48:55;;;;;;;0.15;0.15;;;;;;;13.08;96.99;100838.41;5034191;28;20049;-91
2021/08/03 05:51:30;;;;;;;0.10;0.10;;;;;;;13.23;98.45;100860.06;5035200;28;20038;-89
2021/08/03 05:54:23;;;;;;;0.10;0.10;;;;;;;13.22;97.83;100861.16;5032677;28;20057;-90
2021/08/03 05:56:57;;;;;;;0.15;0.15;;;;;;;13.25;97.21;100857.84;5033316;28;20057;-90
2021/08/03 05:59:30;;;;;;;0.20;0.20;;;;;;;13.10;97.25;100826.09;5028766;28;20046;-90
2021/08/03 06:01:58;;;;;;;0.15;0.15;;;;;;;13.20;96.66;100836.06;5031710;28;20061;-90
2021/08/03 06:04:32;;;;;;;0.10;0.10;;;;;;;13.16;97.07;100856.06;5032500;28;20505;-90
2021/08/03 06:07:03;;;;;;;0.10;0.10;;;;;;;13.19;97.22;100852.75;5030039;28;20491;-90
2021/08/03 06:09:38;;;;;;;0.20;0.20;;;;;;;13.23;96.21;100860.06;5022060;28;20041;-89
2021/08/03 06:12:11;;;;;;;0.10;0.10;;;;;;;13.32;96.33;100856.69;5027732;28;20053;-90
2021/08/03 06:14:50;;;;;;;0.17;0.17;;;;;;;13.41;95.45;100860.41;5033423;28;20045;-90
2021/08/03 06:17:19;;;;;;;0.10;0.10;;;;;;;13.22;93.15;100854.91;5032767;28;20049;-90
2021/08/03 06:19:52;;;;;;;0.20;0.20;;;;;;;13.26;95.90;100862.19;5033460;28;20045;-89
2021/08/03 06:22:24;;;;;;;0.10;0.10;;;;;;;13.27;95.04;100863.84;5033127;28;20053;-89
2021/08/03 06:24:57;;;;;;;0.20;0.20;;;;;;;13.03;91.60;100857.59;5027796;28;20050;-91
2021/08/03 06:27:32;;;;;;;0.17;0.17;;;;;;;12.91;92.35;100858.81;5027507;28;20056;-90
2021/08/03 06:30:07;;;;;;;0.20;0.20;;;;;;;12.86;94.76;100866.25;5033313;28;20049;-90
2021/08/03 06:32:42;;;;;;;0.10;0.10;;;;;;;12.86;93.63;100871.72;5032698;28;20056;-90
2021/08/03 06:35:16;;;;;;;0.20;0.20;;;;;;;12.89;93.91;100862.94;5033277;28;20494;-91
2021/08/03 06:37:51;;;;;;;0.20;0.20;;;;;;;13.03;96.64;100863.84;5033458;28;20041;-91
2021/08/03 06:40:19;;;;;;;0.17;0.17;;;;;;;12.66;92.25;100809.94;5028160;28;20065;-91
2021/08/03 06:42:49;;;;;;;0.20;0.20;;;;;;;13.02;94.70;100858.69;5027991;28;20050;-90
2021/08/03 06:45:28;;;;;;;0.10;0.10;;;;;;;13.27;88.39;100860.28;5030499;28;20057;-91
2021/08/03 06:48:03;;;;;;;0.20;0.20;;;;;;;13.06;91.48;100838.69;5032752;28;20060;-91
2021/08/03 06:50:41;;;;;;;0.15;0.15;;;;;;;13.23;93.68;100862.78;5033192;28;20054;-91
2021/08/03 06:53:21;;;;;;;0.20;0.20;;;;;;;13.31;94.48;100861.31;5033215;28;20045;-91
2021/08/03 06:55:49;;;;;;;0.15;0.15;;;;;;;13.32;95.75;100859.41;5032134;28;20060;-90
2021/08/03 06:58:31;;;;;;;0.20;0.20;;;;;;;13.31;94.42;100853.13;5021239;28;20048;-89
2021/08/03 07:01:16;;;;;;;0.15;0.15;;;;;;;13.41;95.56;100854.94;5028143;28;20052;-90
2021/08/03 07:04:00;;;;;;;0.20;0.20;;;;;;;13.54;96.14;100851.47;5025679;28;20060;-90
2021/08/03 07:06:44;;;;;;;0.10;0.10;;;;;;;13.56;95.52;100849.25;5029823;28;20497;-90
2021/08/03 07:09:15;;;;;;;0.20;0.20;;;;;;;13.60;94.84;100831.16;5031901;28;20052;-91
2021/08/03 07:12:10;;;;;;;0.13;0.13;;;;;;;13.77;93.17;100849.75;5029290;28;20045;-90
2021/08/03 07:14:39;;;;;;;0.20;0.20;;;;;;;13.83;94.36;100845.03;5027480;28;20551;-91
2021/08/03 07:17:14;;;;;;;0.20;0.20;;;;;;;13.91;93.41;100849.00;5031563;28;20494;-91
2021/08/03 07:19:59;;;;;;;0.20;0.20;;;;;;;14.01;94.84;100839.81;5032397;28;20421;-90
2021/08/03 07:22:31;;;;;;;0.10;0.10;;;;;;;14.04;92.66;100825.53;5027751;28;20050;-90
2021/08/03 07:25:10;;;;;;;0.10;0.10;;;;;;;14.18;92.52;100833.78;5026607;28;20470;-90
2021/08/03 07:28:09;;;;;;;0.13;0.13;;;;;;;14.32;92.46;100839.28;5026230;28;20068;-89
2021/08/03 07:30:46;;;;;;;0.20;0.20;;;;;;;14.35;92.40;100838.66;5028480;28;20054;-91
2021/08/03 07:33:20;;;;;;;0.20;0.20;;;;;;;14.50;91.80;100838.41;5009573;28;20061;-87
2021/08/03 07:35:50;;;;;;;0.10;0.10;;;;;;;14.61;91.22;100844.50;5024054;28;20053;-90
2021/08/03 07:38:18;;;;;;;0.20;0.20;;;;;;;14.78;88.69;100844.75;5026086;28;20061;-89
2021/08/03 07:40:48;;;;;;;0.10;0.10;;;;;;;14.70;85.96;100837.22;5028234;28;20060;-89
2021/08/03 07:43:16;;;;;;;0.10;0.10;;;;;;;14.80;87.89;100844.44;5026129;28;20042;-86
2021/08/03 07:45:51;;;;;;;0.10;0.10;;;;;;;14.87;87.32;100852.25;5023328;28;20068;-89
2021/08/03 07:48:24;;;;;;;0.20;0.20;;;;;;;14.77;85.81;100847.78;5038899;28;20458;-89
2021/08/03 07:50:54;;;;;;;0.10;0.10;;;;;;;14.88;88.38;100851.16;5001235;28;20059;-87
2021/08/03 07:53:22;;;;;;;0.10;0.10;;;;;;;14.93;85.06;100846.38;4995812;28;20064;-90
2021/08/03 07:55:53;;;;;;;0.13;0.13;;;;;;;15.03;85.18;100844.53;5002286;28;20057;-89
2021/08/03 07:58:22;;;;;;;0.10;0.10;;;;;;;15.14;84.69;100840.47;4998288;28;20054;-86
2021/08/03 08:00:50;;;;;;;0.10;0.10;;;;;;;15.20;85.15;100832.94;5001692;28;20413;-88
2021/08/03 08:03:27;;;;;;;0.10;0.10;;;;;;;15.25;81.50;100843.81;4999932;28;20064;-88
2021/08/03 08:05:56;;;;;;;0.10;0.10;;;;;;;15.37;78.58;100838.59;4999101;28;20687;-88
2021/08/03 08:08:30;;;;;;;0.10;0.10;;;;;;;15.42;80.82;100843.16;5003603;28;20054;-87
2021/08/03 08:11:00;;;;;;;0.10;0.10;;;;;;;15.63;79.48;100846.22;4998488;28;24593;-88
2021/08/03 08:13:29;;;;;;;0.10;0.10;;;;;;;15.67;77.80;100847.22;4997139;28;20057;-88
2021/08/03 08:15:58;;;;;;;0.10;0.10;;;;;;;15.65;73.93;100849.50;4996144;28;20054;-87
2021/08/03 08:18:32;;;;;;;0.10;0.10;;;;;;;15.67;74.03;100841.75;5005117;28;20054;-87
2021/08/03 08:21:07;;;;;;;0.20;0.20;;;;;;;15.75;75.53;100830.03;4994775;28;20057;-87
2021/08/03 08:23:37;;;;;;;0.20;0.20;;;;;;;15.90;78.94;100836.31;4998172;28;20077;-88
2021/08/03 08:26:08;;;;;;;0.20;0.20;;;;;;;16.12;78.21;100835.50;5000696;28;20065;-87
2021/08/03 08:28:36;;;;;;;0.10;0.10;;;;;;;16.37;78.47;100834.00;5010119;28;20040;-90
2021/08/03 08:31:10;;;;;;;0.10;0.10;;;;;;;16.11;74.13;100829.16;5000832;28;20053;-87
2021/08/03 08:33:38;;;;;;;0.20;0.20;;;;;;;16.20;76.25;100832.00;4995415;28;20053;-87
2021/08/03 08:36:11;;;;;;;0.10;0.10;;;;;;;16.40;74.56;100832.56;4996711;28;20053;-87
2021/08/03 08:38:44;;;;;;;0.10;0.10;;;;;;;16.52;70.87;100829.22;5008576;28;20038;-86
2021/08/03 08:41:14;;;;;;;0.10;0.10;;;;;;;16.55;69.75;100820.38;5005249;28;20053;-90
2021/08/03 08:43:43;;;;;;;0.10;0.10;;;;;;;17.00;69.22;100825.72;5001370;28;20045;-90
2021/08/03 08:46:18;;;;;;;0.20;0.20;;;;;;;17.00;71.83;100811.97;5010597;28;20057;-89
2021/08/03 08:48:58;;;;;;;0.20;0.20;;;;;;;17.24;71.68;100829.97;5001196;28;20054;-89
2021/08/03 08:51:27;;;;;;;0.10;0.10;;;;;;;16.96;74.90;100824.75;5002600;28;20057;-89
2021/08/03 08:54:01;;;;;;;0.15;0.15;;;;;;;17.09;75.21;100839.47;5007579;28;20050;-89
2021/08/03 08:56:36;;;;;;;0.20;0.20;;;;;;;17.13;72.06;100827.50;5010487;28;20061;-89
2021/08/03 08:59:09;;;;;;;0.10;0.10;;;;;;;17.14;67.00;100822.84;5002715;28;20053;-88
2021/08/03 09:01:42;;;;;;;0.10;0.10;;;;;;;17.12;68.45;100825.91;5004599;28;20696;-88
2021/08/03 09:04:11;;;;;;;0.10;0.10;;;;;;;17.30;70.44;100806.66;5006123;28;20061;-89
2021/08/03 09:07:00;;;;;;;0.10;0.10;;;;;;;17.29;64.22;100819.63;5005370;28;20056;-89
2021/08/03 09:09:40;;;;;;;0.10;0.10;;;;;;;17.59;69.61;100814.28;5005504;28;20057;-89
2021/08/03 09:12:12;;;;;;;0.10;0.10;;;;;;;17.84;67.67;100809.91;5006496;28;20093;-89
2021/08/03 09:14:46;;;;;;;0.10;0.10;;;;;;;17.97;64.55;100812.84;5003167;28;20064;-89
2021/08/03 09:17:27;;;;;;;0.10;0.10;;;;;;;18.22;66.25;100813.09;4998980;28;20069;-89
2021/08/03 09:20:13;;;;;;;0.10;0.10;;;;;;;18.19;60.08;100796.06;5003067;28;20061;-89
2021/08/03 09:22:48;;;;;;;0.10;0.10;;;;;;;18.26;65.54;100803.84;5003945;28;20057;-88
2021/08/03 09:25:21;;;;;;;0.20;0.20;;;;;;;17.90;63.44;100796.78;4999844;28;20732;-88
2021/08/03 09:27:52;;;;;;;0.10;0.10;;;;;;;17.95;64.38;100804.91;5000152;28;20049;-88
2021/08/03 09:30:30;;;;;;;0.10;0.10;;;;;;;18.00;69.50;100795.66;4997905;28;20049;-89
2021/08/03 09:33:06;;;;;;;0.10;0.10;;;;;;;18.04;63.23;100801.31;5000142;28;20269;-89
2021/08/03 09:35:45;;;;;;;0.20;0.20;;;;;;;18.12;65.44;100795.78;5004163;28;20053;-88
2021/08/03 09:38:18;;;;;;;0.10;0.10;;;;;;;18.27;66.50;100777.91;5005984;28;20065;-89
2021/08/03 09:41:07;;;;;;;0.13;0.13;;;;;;;18.95;64.70;100801.94;5001709;28;20045;-89
2021/08/03 09:43:42;;;;;;;0.10;0.10;;;;;;;18.99;61.99;100802.88;5005949;28;20050;-89
2021/08/03 09:46:21;;;;;;;0.10;0.10;;;;;;;18.42;58.57;100806.88;5001035;28;20530;-88
2021/08/03 09:48:55;;;;;;;0.10;0.10;;;;;;;18.63;63.06;100803.34;5008079;28;20053;-89
2021/08/03 09:51:30;;;;;;;0.10;0.10;;;;;;;18.41;60.09;100802.50;5003826;28;20069;-89
2021/08/03 09:54:06;;;;;;;0.10;0.10;;;;;;;18.09;58.46;100803.88;5006242;28;20060;-89
2021/08/03 09:56:42;;;;;;;0.20;0.20;;;;;;;17.67;60.13;100799.69;5010900;28;20060;-88
2021/08/03 09:59:47;;;;;;;0.10;0.10;;;;;;;17.68;63.79;100798.56;4999846;28;20529;-89
2021/08/03 10:02:23;;;;;;;0.10;0.10;;;;;;;17.47;60.67;100794.88;5001942;28;20053;-90
2021/08/03 10:04:57;;;;;;;0.10;0.10;;;;;;;17.92;62.47;100783.50;5006304;28;20581;-88
2021/08/03 10:07:36;;;;;;;0.10;0.10;;;;;;;18.64;62.95;100788.44;5004983;28;20057;-90
2021/08/03 10:10:06;;;;;;;0.10;0.10;;;;;;;18.96;60.01;100788.94;5003404;28;20069;-87
2021/08/03 10:12:39;;;;;;;0.10;0.10;;;;;;;19.28;57.08;100781.09;5001425;28;21015;-88
2021/08/03 10:15:14;;;;;;;0.10;0.10;;;;;;;19.26;57.99;100784.19;5016236;28;20065;-87
2021/08/03 10:17:47;;;;;;;0.10;0.10;;;;;;;19.11;60.54;100779.28;5001534;28;20049;-88
2021/08/03 10:20:21;;;;;;;0.10;0.10;;;;;;;18.94;57.08;100791.22;5006598;28;20827;-88
2021/08/03 10:22:59;;;;;;;0.10;0.10;;;;;;;18.59;55.76;100788.63;4996358;28;20049;-89
2021/08/03 10:25:40;;;;;;;0.20;0.20;;;;;;;18.55;58.35;100794.00;4997999;28;20064;-90
2021/08/03 10:28:21;;;;;;;0.10;0.10;;;;;;;18.44;58.05;100792.75;5004236;28;20713;-89
2021/08/03 10:30:52;;;;;;;0.10;0.10;;;;;;;18.50;62.18;100791.44;5014170;28;20734;-89
2021/08/03 10:33:40;;;;;;;0.10;0.10;;;;;;;18.56;64.18;100800.31;5008483;28;20815;-91
2021/08/03 10:36:47;;;;;;;0.10;0.10;;;;;;;18.22;65.49;100788.31;5003988;28;20057;-88
2021/08/03 10:39:20;;;;;;;0.15;0.15;;;;;;;17.83;65.55;100790.97;4998284;28;20061;-90
2021/08/03 10:42:12;;;;;;;0.13;0.13;;;;;;;17.45;65.95;100786.13;5002771;28;20069;-87
2021/08/03 10:44:47;;;;;;;0.10;0.10;;;;;;;17.60;67.08;100793.09;5000971;28;20060;-89
2021/08/03 10:48:12;;;;;;;0.10;0.10;;;;;;;17.61;66.33;100783.69;4998838;28;20057;-86
2021/08/03 10:50:47;;;;;;;0.10;0.10;;;;;;;17.34;67.71;100785.63;5004305;28;20076;-89
2021/08/03 10:53:58;;;;;;;0.20;0.20;;;;;;;17.39;68.27;100790.19;5000279;28;20058;-89
2021/08/03 10:57:22;;;;;;;0.10;0.10;;;;;;;17.55;67.12;100787.75;5000509;28;20056;-88
2021/08/03 11:00:39;;;;;;;0.10;0.10;;;;;;;17.59;67.37;100781.25;5004903;28;20461;-89
2021/08/03 11:03:40;;;;;;;0.10;0.10;;;;;;;17.62;66.22;100786.13;5002749;28;20072;-89
2021/08/03 11:06:39;;;;;;;0.17;0.17;;;;;;;17.46;67.97;100791.31;5002998;28;20058;-87
2021/08/03 11:09:34;;;;;;;0.10;0.10;;;;;;;17.52;68.08;100789.19;4997739;28;20073;-88
2021/08/03 11:12:35;;;;;;;0.10;0.10;;;;;;;17.43;67.18;100791.97;4996961;28;20068;-89
2021/08/03 11:15:42;;;;;;;0.10;0.10;;;;;;;17.63;66.63;100786.94;5004029;28;20061;-85
2021/08/03 11:18:18;;;;;;;0.10;0.10;;;;;;;17.60;67.36;100773.81;4919627;28;20062;-89
2021/08/03 11:21:10;;;;;;;0.10;0.10;;;;;;;17.58;65.71;100790.66;4924447;28;20059;-88
2021/08/03 11:24:02;;;;;;;0.20;0.20;;;;;;;17.65;68.01;100785.47;4967752;28;20060;-88
2021/08/03 11:26:38;;;;;;;0.17;0.17;;;;;;;17.67;67.20;100763.13;5001924;28;20061;-88
2021/08/03 11:29:13;;;;;;;0.20;0.20;;;;;;;18.13;66.85;100780.88;4999829;28;20057;-88
2021/08/03 11:31:55;;;;;;;0.10;0.10;;;;;;;17.75;63.09;100778.81;4994358;28;20054;-90
2021/08/03 11:34:28;;;;;;;0.10;0.10;;;;;;;17.91;63.49;100773.66;5004990;28;20069;-89
2021/08/03 11:37:16;;;;;;;0.10;0.10;;;;;;;17.94;65.94;100775.75;4995109;28;20061;-89
2021/08/03 11:39:52;;;;;;;0.10;0.10;;;;;;;17.93;65.59;100771.38;5000851;28;20046;-88
2021/08/03 11:42:38;;;;;;;0.10;0.10;;;;;;;17.91;65.42;100770.03;4997758;28;20483;-88
2021/08/03 11:45:40;;;;;;;0.10;0.10;;;;;;;17.97;64.32;100766.81;5002533;28;20048;-89
2021/08/03 11:48:17;;;;;;;0.10;0.10;;;;;;;18.33;63.28;100768.31;4995691;28;20053;-86
2021/08/03 11:50:50;;;;;;;0.20;0.20;;;;;;;18.30;63.87;100762.69;5001357;28;20053;-89
2021/08/03 11:53:29;;;;;;;0.10;0.10;;;;;;;18.37;61.81;100760.22;5011195;28;20054;-90
2021/08/03 11:56:01;;;;;;;0.15;0.15;;;;;;;18.75;62.26;100775.09;4999750;28;20065;-88
2021/08/03 11:58:31;;;;;;;0.10;0.10;;;;;;;18.43;61.29;100764.38;4997551;28;20060;-87
2021/08/03 12:01:05;;;;;;;0.10;0.10;;;;;;;18.52;61.61;100739.56;4996837;28;20069;-87
2021/08/03 12:03:40;;;;;;;0.17;0.17;;;;;;;18.84;61.90;100759.31;5001342;28;20064;-88
2021/08/03 12:06:09;;;;;;;0.10;0.10;;;;;;;18.90;64.12;100751.69;5000193;28;20060;-87
2021/08/03 12:08:44;;;;;;;0.20;0.20;;;;;;;19.02;61.05;100755.31;5013608;28;20053;-90
2021/08/03 12:11:23;;;;;;;0.10;0.10;;;;;;;19.11;61.35;100744.25;5003894;28;20068;-90